createdAt,value
2018-11-12T00:05:00.590Z,81.86
2018-11-12T00:10:12.224Z,81.42
2018-11-12T00:15:17.776Z,81.22
2018-11-12T00:20:22.415Z,81.46
2018-11-12T00:25:27.108Z,81.35
2018-11-12T00:30:31.812Z,81.66
2018-11-12T00:35:36.551Z,80.45
2018-11-12T00:40:42.436Z,81.02
2018-11-12T00:45:46.930Z,80.64
2018-11-12T00:50:51.725Z,81.17
2018-11-12T00:55:56.147Z,82.33
2018-11-12T01:01:01.678Z,81.06
2018-11-12T01:06:06.265Z,81.26
2018-11-12T01:11:11.275Z,82.21
2018-11-12T01:16:15.921Z,82.07
2018-11-12T01:21:20.423Z,82.72
2018-11-12T01:26:30.703Z,82.95
2018-11-12T01:31:36.312Z,82.39
2018-11-12T01:36:59.357Z,83.36
2018-11-12T01:42:05.661Z,84.54
2018-11-12T01:47:10.803Z,83.79
2018-11-12T01:52:15.383Z,84.29
2018-11-12T01:57:19.797Z,84.25
2018-11-12T02:02:25.395Z,83.99
2018-11-12T02:07:29.693Z,84.52
2018-11-12T02:12:34.617Z,85.32
2018-11-12T02:17:39.549Z,85.76
2018-11-12T02:22:45.162Z,85.21
2018-11-12T02:27:50.272Z,85.22
2018-11-12T02:32:56.316Z,84.83
2018-11-12T02:38:00.932Z,84.79
2018-11-12T02:43:05.381Z,85.41
2018-11-12T02:48:09.986Z,84.37
2018-11-12T02:53:14.545Z,84.59
2018-11-12T02:58:19.455Z,84.78
2018-11-12T03:03:24.060Z,84.67
2018-11-12T03:08:33.381Z,85.37
2018-11-12T03:13:37.734Z,85.07
2018-11-12T03:18:42.437Z,85.11
2018-11-12T03:23:47.132Z,85.82
2018-11-12T03:28:51.941Z,84.98
2018-11-12T03:33:56.307Z,85.27
2018-11-12T03:39:00.781Z,85.23
2018-11-12T03:44:05.406Z,85.87
2018-11-12T03:49:09.996Z,85.54
2018-11-12T03:54:14.415Z,87.40
2018-11-12T03:59:18.715Z,86.82
2018-11-12T04:04:23.243Z,87.57
2018-11-12T04:09:27.593Z,87.28
2018-11-12T04:14:32.203Z,87.14
2018-11-12T04:19:36.523Z,87.42
2018-11-12T04:24:41.163Z,87.23
2018-11-12T04:29:45.389Z,87.22
2018-11-12T04:34:50.049Z,87.36
2018-11-12T04:39:55.065Z,87.89
2018-11-12T04:44:59.442Z,86.70
2018-11-12T04:50:04.157Z,87.30
2018-11-12T04:55:09.396Z,87.87
2018-11-12T05:00:17.119Z,87.57
2018-11-12T05:05:22.887Z,87.90
2018-11-12T05:10:27.841Z,87.35
2018-11-12T05:15:32.619Z,86.83
2018-11-12T05:20:37.535Z,87.97
2018-11-12T05:25:42.381Z,87.97
2018-11-12T05:30:46.647Z,87.59
2018-11-12T05:35:50.943Z,87.03
2018-11-12T05:40:55.515Z,87.85
2018-11-12T05:46:00.033Z,86.84
2018-11-12T05:51:06.417Z,86.80
2018-11-12T05:56:10.874Z,86.19
2018-11-12T06:01:15.210Z,86.44
2018-11-12T06:06:20.166Z,86.61
2018-11-12T06:11:24.940Z,85.67
2018-11-12T06:16:29.363Z,86.47
2018-11-12T06:21:34.028Z,86.21
2018-11-12T06:26:38.440Z,85.20
2018-11-12T06:31:42.953Z,84.69
2018-11-12T06:36:47.950Z,85.87
2018-11-12T06:41:52.527Z,85.04
2018-11-12T06:46:57.203Z,85.48
2018-11-12T06:52:05.729Z,83.85
2018-11-12T06:57:10.611Z,84.50
2018-11-12T07:02:15.601Z,84.89
2018-11-12T07:07:25.055Z,84.24
2018-11-12T07:12:30.255Z,84.59
2018-11-12T07:17:49.632Z,84.61
2018-11-12T07:23:12.081Z,84.81
2018-11-12T07:28:22.005Z,84.62
2018-11-12T07:33:26.765Z,84.21
2018-11-12T07:38:36.163Z,83.37
2018-11-12T07:43:41.412Z,83.60
2018-11-12T07:48:45.870Z,82.19
2018-11-12T07:53:50.667Z,83.11
2018-11-12T07:58:57.079Z,82.91
2018-11-12T08:04:01.743Z,83.64
2018-11-12T08:09:08.538Z,83.38
2018-11-12T08:14:12.984Z,82.10
2018-11-12T08:19:22.786Z,82.08
2018-11-12T08:24:27.491Z,83.54
2018-11-12T08:29:32.167Z,83.45
2018-11-12T08:34:36.665Z,83.43
2018-11-12T08:39:41.252Z,82.87
2018-11-12T08:44:46.735Z,82.32
2018-11-12T08:49:51.719Z,82.00
2018-11-12T08:54:56.826Z,81.53
2018-11-12T09:00:01.764Z,80.62
2018-11-12T09:05:08.788Z,79.72
2018-11-12T09:10:29.365Z,78.82
2018-11-12T09:15:34.604Z,77.83
2018-11-12T09:20:44.969Z,78.36
2018-11-12T09:25:49.612Z,77.59
2018-11-12T09:30:55.512Z,76.54
2018-11-12T09:35:59.013Z,74.62
2018-11-12T09:41:03.430Z,73.87
2018-11-12T09:46:07.820Z,74.20
2018-11-12T09:51:19.780Z,73.30
2018-11-12T09:56:26.721Z,72.30
2018-11-12T10:01:31.893Z,72.89
2018-11-12T10:06:37.340Z,72.26
2018-11-12T10:11:42.367Z,72.10
2018-11-12T10:16:47.269Z,72.47
2018-11-12T10:21:49.763Z,72.84
2018-11-12T10:26:54.325Z,72.21
2018-11-12T10:31:58.810Z,72.34
2018-11-12T10:37:03.443Z,72.00
2018-11-12T10:42:08.741Z,71.66
2018-11-12T10:47:13.360Z,70.91
2018-11-12T10:52:18.520Z,68.62
2018-11-12T10:57:27.970Z,65.83
2018-11-12T11:02:33.918Z,61.94
2018-11-12T11:07:38.460Z,59.69
2018-11-12T11:12:42.843Z,57.87
2018-11-12T11:17:47.504Z,56.77
2018-11-12T11:22:52.107Z,56.73
2018-11-12T11:27:56.881Z,56.20
2018-11-12T11:33:02.005Z,56.30
2018-11-12T11:38:06.781Z,55.61
2018-11-12T11:43:11.502Z,53.31
2018-11-12T11:48:16.159Z,54.27
2018-11-12T11:53:20.980Z,53.76
2018-11-12T11:58:26.153Z,55.61
2018-11-12T12:03:30.467Z,57.90
2018-11-12T12:08:36.147Z,57.88
2018-11-12T12:13:40.989Z,57.99
2018-11-12T12:18:45.569Z,55.86
2018-11-12T12:23:49.727Z,55.75
2018-11-12T12:28:54.761Z,56.10
2018-11-12T12:33:59.398Z,56.78
2018-11-12T12:39:10.697Z,55.95
2018-11-12T12:44:16.275Z,56.56
2018-11-12T12:49:21.018Z,57.47
2018-11-12T12:54:25.985Z,57.55
2018-11-12T12:59:30.554Z,57.93
2018-11-12T13:04:34.977Z,56.76
2018-11-12T13:09:39.511Z,56.74
2018-11-12T13:14:43.996Z,57.51
2018-11-12T13:19:48.556Z,57.49
2018-11-12T13:24:52.773Z,57.92
2018-11-12T13:29:57.554Z,58.45
2018-11-12T13:35:02.329Z,58.49
2018-11-12T13:40:09.563Z,58.15
2018-11-12T13:45:14.274Z,58.45
2018-11-12T13:50:20.138Z,58.50
2018-11-12T13:55:25.125Z,56.58
2018-11-12T14:00:30.860Z,57.83
2018-11-12T14:05:35.241Z,57.75
2018-11-12T14:10:39.858Z,57.15
2018-11-12T14:15:44.596Z,54.33
2018-11-12T14:20:49.152Z,53.37
2018-11-12T14:25:54.395Z,53.36
2018-11-12T14:30:58.936Z,53.82
2018-11-12T14:36:03.451Z,53.81
2018-11-12T14:41:07.824Z,53.10
2018-11-12T14:46:12.307Z,53.42
2018-11-12T14:51:16.874Z,52.90
2018-11-12T14:56:21.537Z,52.69
2018-11-12T15:01:26.933Z,52.89
2018-11-12T15:06:31.328Z,54.47
2018-11-12T15:11:36.918Z,53.93
2018-11-12T15:16:42.042Z,54.01
2018-11-12T15:21:47.011Z,54.77
2018-11-12T15:26:51.785Z,55.26
2018-11-12T15:31:56.475Z,56.14
2018-11-12T15:37:14.833Z,57.08
2018-11-12T15:42:19.209Z,57.59
2018-11-12T15:47:23.842Z,58.49
2018-11-12T15:52:28.798Z,58.89
2018-11-12T15:57:38.325Z,58.85
2018-11-12T16:02:42.727Z,59.54
2018-11-12T16:07:47.425Z,59.55
2018-11-12T16:12:52.442Z,60.34
2018-11-12T16:18:06.234Z,61.15
2018-11-12T16:23:10.855Z,61.44
2018-11-12T16:28:17.200Z,61.73
2018-11-12T16:33:21.764Z,62.10
2018-11-12T16:38:26.284Z,62.22
2018-11-12T16:43:31.759Z,62.54
2018-11-12T16:48:36.447Z,62.32
2018-11-12T16:53:41.111Z,63.26
2018-11-12T16:58:45.452Z,63.30
2018-11-12T17:03:50.236Z,63.74
2018-11-12T17:08:54.896Z,63.76
2018-11-12T17:13:59.534Z,64.03
2018-11-12T17:19:04.254Z,64.89
2018-11-12T17:24:09.114Z,64.94
2018-11-12T17:29:14.364Z,65.00
2018-11-12T17:34:19.028Z,65.88
2018-11-12T17:39:23.677Z,65.75
2018-11-12T17:44:28.733Z,65.57
2018-11-12T17:49:33.653Z,65.82
2018-11-12T17:54:38.387Z,65.20
2018-11-12T17:59:42.872Z,65.22
2018-11-12T18:04:47.590Z,64.43
2018-11-12T18:09:52.316Z,64.74
2018-11-12T18:14:57.709Z,65.22
2018-11-12T18:20:02.576Z,64.98
2018-11-12T18:25:11.860Z,65.31
2018-11-12T18:30:25.491Z,65.54
2018-11-12T18:35:30.637Z,65.45
2018-11-12T18:40:35.604Z,66.04
2018-11-12T18:45:40.935Z,65.70
2018-11-12T18:50:45.546Z,65.81
2018-11-12T18:55:50.757Z,66.36
2018-11-12T19:00:56.304Z,65.71
2018-11-12T19:06:01.290Z,66.50
2018-11-12T19:11:16.487Z,66.27
2018-11-12T19:16:20.949Z,66.71
2018-11-12T19:21:25.595Z,67.33
2018-11-12T19:26:31.009Z,67.94
2018-11-12T19:31:35.555Z,67.37
2018-11-12T19:36:40.376Z,67.19
2018-11-12T19:41:45.484Z,67.73
2018-11-12T19:46:50.482Z,68.23
2018-11-12T19:51:55.414Z,68.71
2018-11-12T19:57:02.759Z,68.49
2018-11-12T20:02:08.879Z,69.40
2018-11-12T20:07:19.782Z,69.22
2018-11-12T20:17:35.421Z,70.39
2018-11-12T20:22:41.481Z,70.14
2018-11-12T20:27:47.008Z,70.67
2018-11-12T20:32:52.382Z,70.50
2018-11-12T20:37:57.874Z,70.61
2018-11-12T20:43:02.690Z,70.68
2018-11-12T20:48:08.043Z,70.64
2018-11-12T20:53:21.919Z,70.99
2018-11-12T20:58:31.105Z,70.77
2018-11-12T21:03:35.926Z,70.85
2018-11-12T21:08:43.400Z,70.80
2018-11-12T21:13:48.829Z,71.29
2018-11-12T21:18:58.580Z,71.06
2018-11-12T21:24:04.659Z,71.40
2018-11-12T21:29:23.208Z,71.24
2018-11-12T21:34:28.389Z,71.43
2018-11-12T21:39:33.565Z,71.57
2018-11-12T21:44:43.877Z,71.41
2018-11-12T21:49:50.494Z,71.59
2018-11-12T21:54:56.409Z,71.81
2018-11-12T22:05:35.787Z,71.22
2018-11-12T22:10:41.904Z,71.74
2018-11-12T22:15:47.960Z,71.62
2018-11-12T22:20:53.617Z,71.76
2018-11-12T22:25:58.185Z,71.09
2018-11-12T22:31:02.943Z,70.84
2018-11-12T22:36:07.528Z,70.76
2018-11-12T22:41:19.557Z,70.63
2018-11-12T22:46:30.274Z,70.14
2018-11-12T22:51:37.220Z,70.61
2018-11-12T22:56:41.768Z,70.49
2018-11-12T23:01:46.207Z,70.69
2018-11-12T23:06:51.688Z,70.36
2018-11-12T23:11:56.589Z,70.33
2018-11-12T23:17:00.992Z,70.07
2018-11-12T23:22:06.648Z,70.66
2018-11-12T23:27:11.030Z,70.79
2018-11-12T23:32:15.720Z,70.85
2018-11-12T23:37:20.545Z,70.81
2018-11-12T23:42:24.842Z,70.69
2018-11-12T23:47:29.152Z,71.44
2018-11-12T23:52:33.526Z,71.63
2018-11-12T23:57:37.959Z,71.43
